Brilliance Of The Seas — C6SJ5 — position and weather

sailwx.info

Track history (hours):
 
Tides and Currents Weather Stations Pressure Air Temp Water Temp Dewpoint Dewpoint Depression Visibility Wind Speed Wind Dir Waves Ship Positions

Brilliance Of The Seas

Operator: Royal Caribbean Cruises Ltd

Last reported at 2016-Jul-27 05:32 UTC. Time now 2016-Jul-27 05:45 UTC.
Position N 43°33' E 010°18'.

Type: Ship. MMSI: 311361000.

Date/timePositionNaut miles runAvg speedWind from/ knotsBaromVisibWave heightAir tempDewpointWater temp
2016-Jul-27 05:32N 43°33' E 010°18'0 0.1
2016-Jul-27 04:33N 43°33' E 010°18'8 7.6
2016-Jul-27 03:33N 43°28' E 010°10'1212.0
2016-Jul-27 02:33N 43°31' E 009°54'1212.0
2016-Jul-27 01:33N 43°32' E 009°37'1212.0
2016-Jul-27 00:33N 43°33' E 009°21'1212.4
2016-Jul-26 23:33N 43°32' E 009°04'1312.4
2016-Jul-26 22:33N 43°32' E 008°47'1212.5
2016-Jul-26 21:33N 43°32' E 008°30'1212.3
2016-Jul-26 20:33N 43°31' E 008°13'1212.3
2016-Jul-26 19:33N 43°31' E 007°56'1212.2
2016-Jul-26 18:33N 43°31' E 007°39'1211.9
2016-Jul-26 17:33N 43°37' E 007°24'6 0.6
2016-Jul-26 07:29N 43°41' E 007°19'1010.3
2016-Jul-26 06:33N 43°32' E 007°16'1716.6
2016-Jul-26 05:33N 43°19' E 007°02'2416.1
2016-Jul-26 04:04N 43°01' E 006°39'816.4
2016-Jul-26 03:34N 42°57' E 006°30'1716.6
2016-Jul-26 02:33N 42°48' E 006°10'10317.2
2016-Jul-25 20:33N 41°58' E 004°08'2417.6
2016-Jul-25 19:10N 41°46' E 003°40'1218.0
2016-Jul-25 18:30N 41°40' E 003°26'2222.7
2016-Jul-25 17:33N 41°30' E 003°00'2422.7
2016-Jul-25 16:30N 41°20' E 002°32'1617.1
2016-Jul-25 15:33N 41°18' E 002°10'3 2.7
2016-Jul-25 14:18N 41°22' E 002°11'0 0.0
2016-Jul-25 13:18N 41°22' E 002°11'0 0.0
2016-Jul-25 12:30N 41°22' E 002°11'0 0.0
2016-Jul-25 10:24N 41°22' E 002°11'0 0.0
2016-Jul-25 09:18N 41°22' E 002°11'1 0.1
2016-Jul-25 03:31N 41°21' E 002°10'9 9.4
2016-Jul-25 02:33N 41°13' E 002°17'1615.8
2016-Jul-25 01:33N 41°05' E 002°34'1615.5
2016-Jul-25 00:33N 40°57' E 002°52'1615.8
2016-Jul-24 23:33N 40°49' E 003°10'1616.1
2016-Jul-24 22:33N 40°42' E 003°29'1616.1
2016-Jul-24 21:33N 40°34' E 003°48'3616.0
2016-Jul-24 19:16N 40°15' E 004°29'39819.0
2016-Jul-23 22:17N 37°26' E 012°11'1621.9
2016-Jul-23 21:34N 37°16' E 012°27'2422.2
2016-Jul-23 20:28N 36°60' E 012°49'2022.2
2016-Jul-23 19:33N 36°48' E 013°10'2222.2
2016-Jul-23 18:33N 36°33' E 013°31'2222.3
2016-Jul-23 17:33N 36°21' E 013°53'2221.9
2016-Jul-23 16:34N 36°09' E 014°16'1918.6
2016-Jul-23 15:33N 35°57' E 014°33'2 0.2
2016-Jul-23 04:10N 35°55' E 014°33'711.1
2016-Jul-23 03:34N 35°59' E 014°40'1313.2
2016-Jul-23 02:33N 36°03' E 014°55'1413.7
2016-Jul-23 01:33N 36°01' E 015°12'  
2016-Jul-19 18:22N 37°21' E 023°49'1012.0
2016-Jul-19 17:33N 37°30' E 023°45'1212.4
2016-Jul-19 16:33N 37°42' E 023°41'1212.3
2016-Jul-19 15:33N 37°53' E 023°36'4 3.6
2016-Jul-19 14:33N 37°56' E 023°38'0 0.0
2016-Jul-19 13:33N 37°56' E 023°38'0 0.0
2016-Jul-19 12:33N 37°56' E 023°38'0 0.0
2016-Jul-19 11:33N 37°56' E 023°38'0 0.0
2016-Jul-19 10:33N 37°56' E 023°38'0 0.0
2016-Jul-19 09:33N 37°56' E 023°38'0 0.0
2016-Jul-19 08:33N 37°56' E 023°38'0 0.0
2016-Jul-19 07:33N 37°56' E 023°38'0 0.0
2016-Jul-19 04:33N 37°56' E 023°38'0 0.0
2016-Jul-19 03:33N 37°56' E 023°38'0 0.0
2016-Jul-19 02:33N 37°56' E 023°38'1 1.4
2016-Jul-19 01:34N 37°56' E 023°37'1212.4
2016-Jul-19 00:33N 37°44' E 023°43'1312.6
2016-Jul-18 23:33N 37°32' E 023°45'1413.7
2016-Jul-18 22:33N 37°18' E 023°44'1413.6
2016-Jul-18 21:33N 37°05' E 023°39'36213.2
2016-Jul-17 18:07N 37°43' E 016°06'1315.5
2016-Jul-17 17:16N 37°47' E 015°50'1115.3
2016-Jul-17 16:33N 37°50' E 015°37'1313.3
2016-Jul-17 15:33N 38°03' E 015°33'1514.9
2016-Jul-17 14:33N 38°17' E 015°41'1515.1
2016-Jul-17 13:33N 38°31' E 015°33'1514.6
2016-Jul-17 12:33N 38°44' E 015°25'1514.7
2016-Jul-17 11:33N 38°58' E 015°18'  
Track history (hours):
 
Tides and Currents Weather Stations Pressure Air Temp Water Temp Dewpoint Dewpoint Depression Visibility Wind Speed Wind Dir Waves Ship Positions

Brilliance Of The Seas

Operator: Royal Caribbean Cruises Ltd

Last reported at 2016-Jul-27 05:32 UTC. Time now 2016-Jul-27 05:45 UTC.
Position N 43°33' E 010°18'.

Type: Ship. MMSI: 311361000.

Date/timePositionNaut miles runAvg speedWind from/ knotsBaromVisibWave heightAir tempDewpointWater temp
2016-Jul-27 05:32N 43°33' E 010°18'0 0.1
2016-Jul-27 04:33N 43°33' E 010°18'8 7.6
2016-Jul-27 03:33N 43°28' E 010°10'1212.0
2016-Jul-27 02:33N 43°31' E 009°54'1212.0
2016-Jul-27 01:33N 43°32' E 009°37'1212.0
2016-Jul-27 00:33N 43°33' E 009°21'1212.4
2016-Jul-26 23:33N 43°32' E 009°04'1312.4
2016-Jul-26 22:33N 43°32' E 008°47'1212.5
2016-Jul-26 21:33N 43°32' E 008°30'1212.3
2016-Jul-26 20:33N 43°31' E 008°13'1212.3
2016-Jul-26 19:33N 43°31' E 007°56'1212.2
2016-Jul-26 18:33N 43°31' E 007°39'1211.9
2016-Jul-26 17:33N 43°37' E 007°24'6 0.6
2016-Jul-26 07:29N 43°41' E 007°19'1010.3
2016-Jul-26 06:33N 43°32' E 007°16'1716.6
2016-Jul-26 05:33N 43°19' E 007°02'2416.1
2016-Jul-26 04:04N 43°01' E 006°39'816.4
2016-Jul-26 03:34N 42°57' E 006°30'1716.6
2016-Jul-26 02:33N 42°48' E 006°10'10317.2
2016-Jul-25 20:33N 41°58' E 004°08'2417.6
2016-Jul-25 19:10N 41°46' E 003°40'1218.0
2016-Jul-25 18:30N 41°40' E 003°26'2222.7
2016-Jul-25 17:33N 41°30' E 003°00'2422.7
2016-Jul-25 16:30N 41°20' E 002°32'1617.1
2016-Jul-25 15:33N 41°18' E 002°10'3 2.7
2016-Jul-25 14:18N 41°22' E 002°11'0 0.0
2016-Jul-25 13:18N 41°22' E 002°11'0 0.0
2016-Jul-25 12:30N 41°22' E 002°11'0 0.0
2016-Jul-25 10:24N 41°22' E 002°11'0 0.0
2016-Jul-25 09:18N 41°22' E 002°11'1 0.1
2016-Jul-25 03:31N 41°21' E 002°10'9 9.4
2016-Jul-25 02:33N 41°13' E 002°17'1615.8
2016-Jul-25 01:33N 41°05' E 002°34'1615.5
2016-Jul-25 00:33N 40°57' E 002°52'1615.8
2016-Jul-24 23:33N 40°49' E 003°10'1616.1
2016-Jul-24 22:33N 40°42' E 003°29'1616.1
2016-Jul-24 21:33N 40°34' E 003°48'3616.0
2016-Jul-24 19:16N 40°15' E 004°29'39819.0
2016-Jul-23 22:17N 37°26' E 012°11'1621.9
2016-Jul-23 21:34N 37°16' E 012°27'2422.2
2016-Jul-23 20:28N 36°60' E 012°49'2022.2
2016-Jul-23 19:33N 36°48' E 013°10'2222.2
2016-Jul-23 18:33N 36°33' E 013°31'2222.3
2016-Jul-23 17:33N 36°21' E 013°53'2221.9
2016-Jul-23 16:34N 36°09' E 014°16'1918.6
2016-Jul-23 15:33N 35°57' E 014°33'2 0.2
2016-Jul-23 04:10N 35°55' E 014°33'711.1
2016-Jul-23 03:34N 35°59' E 014°40'1313.2
2016-Jul-23 02:33N 36°03' E 014°55'1413.7
2016-Jul-23 01:33N 36°01' E 015°12'  
2016-Jul-19 18:22N 37°21' E 023°49'1012.0
2016-Jul-19 17:33N 37°30' E 023°45'1212.4
2016-Jul-19 16:33N 37°42' E 023°41'1212.3
2016-Jul-19 15:33N 37°53' E 023°36'4 3.6
2016-Jul-19 14:33N 37°56' E 023°38'0 0.0
2016-Jul-19 13:33N 37°56' E 023°38'0 0.0
2016-Jul-19 12:33N 37°56' E 023°38'0 0.0
2016-Jul-19 11:33N 37°56' E 023°38'0 0.0
2016-Jul-19 10:33N 37°56' E 023°38'0 0.0
2016-Jul-19 09:33N 37°56' E 023°38'0 0.0
2016-Jul-19 08:33N 37°56' E 023°38'0 0.0
2016-Jul-19 07:33N 37°56' E 023°38'0 0.0
2016-Jul-19 04:33N 37°56' E 023°38'0 0.0
2016-Jul-19 03:33N 37°56' E 023°38'0 0.0
2016-Jul-19 02:33N 37°56' E 023°38'1 1.4
2016-Jul-19 01:34N 37°56' E 023°37'1212.4
2016-Jul-19 00:33N 37°44' E 023°43'1312.6
2016-Jul-18 23:33N 37°32' E 023°45'1413.7
2016-Jul-18 22:33N 37°18' E 023°44'1413.6
2016-Jul-18 21:33N 37°05' E 023°39'36213.2
2016-Jul-17 18:07N 37°43' E 016°06'1315.5
2016-Jul-17 17:16N 37°47' E 015°50'1115.3
2016-Jul-17 16:33N 37°50' E 015°37'1313.3
2016-Jul-17 15:33N 38°03' E 015°33'1514.9
2016-Jul-17 14:33N 38°17' E 015°41'1515.1
2016-Jul-17 13:33N 38°31' E 015°33'1514.6
2016-Jul-17 12:33N 38°44' E 015°25'1514.7
2016-Jul-17 11:33N 38°58' E 015°18'  

Dump ship's entire track history